createdAt,value
2022-12-08T00:01:25.620Z,98258.00
2022-12-08T00:03:52.597Z,98250.84
2022-12-08T00:06:56.745Z,98247.72
2022-12-08T00:09:39.981Z,98240.31
2022-12-08T00:12:12.757Z,98243.19
2022-12-08T00:14:46.033Z,98243.63
2022-12-08T00:17:15.427Z,98231.50
2022-12-08T00:19:43.293Z,98231.19
2022-12-08T00:22:11.452Z,98236.38
2022-12-08T00:24:40.060Z,98230.38
2022-12-08T00:27:11.922Z,98230.81
2022-12-08T00:29:38.834Z,98227.19
2022-12-08T00:32:15.478Z,98225.44
2022-12-08T00:34:42.082Z,98230.81
2022-12-08T00:37:08.637Z,98231.19
2022-12-08T00:39:35.273Z,98226.09
2022-12-08T00:42:13.850Z,98219.50
2022-12-08T00:44:45.776Z,98215.75
2022-12-08T00:47:24.796Z,98211.59
2022-12-08T00:49:51.901Z,98204.88
2022-12-08T00:52:18.590Z,98205.78
2022-12-08T00:54:45.165Z,98200.94
2022-12-08T00:57:11.801Z,98200.84
2022-12-08T00:59:38.466Z,98201.31
2022-12-08T01:02:05.041Z,98210.97
2022-12-08T01:04:31.593Z,98203.72
2022-12-08T01:06:58.188Z,98201.56
2022-12-08T01:09:24.772Z,98197.13
2022-12-08T01:11:51.414Z,98202.88
2022-12-08T01:14:18.028Z,98204.25
2022-12-08T01:16:44.902Z,98204.75
2022-12-08T01:19:15.860Z,98196.72
2022-12-08T01:21:43.973Z,98207.75
2022-12-08T01:24:20.149Z,98194.06
2022-12-08T01:26:48.350Z,98197.13
2022-12-08T01:29:15.327Z,98189.06
2022-12-08T01:31:42.313Z,98190.16
2022-12-08T01:34:10.397Z,98192.44
2022-12-08T01:36:38.128Z,98204.38
2022-12-08T01:39:08.963Z,98205.47
2022-12-08T01:41:37.837Z,98197.06
2022-12-08T01:44:13.241Z,98185.94
2022-12-08T01:46:43.540Z,98189.56
2022-12-08T01:49:27.643Z,98192.41
2022-12-08T01:52:11.378Z,98195.97
2022-12-08T01:54:50.898Z,98198.47
2022-12-08T01:57:24.863Z,98195.69
2022-12-08T02:00:05.044Z,98195.59
2022-12-08T02:02:59.777Z,98195.56
2022-12-08T02:05:31.779Z,98187.19
2022-12-08T02:08:01.989Z,98193.41
2022-12-08T02:10:32.531Z,98183.66
2022-12-08T02:13:00.329Z,98178.94
2022-12-08T02:16:06.567Z,98180.72
2022-12-08T02:19:29.927Z,98178.84
2022-12-08T02:22:12.911Z,98167.28
2022-12-08T02:24:52.522Z,98177.34
2022-12-08T02:27:54.153Z,98167.63
2022-12-08T02:30:23.354Z,98169.13
2022-12-08T02:33:33.731Z,98169.69
2022-12-08T02:36:15.016Z,98169.13
2022-12-08T02:39:16.770Z,98162.03
2022-12-08T02:42:14.662Z,98162.03
2022-12-08T02:44:48.767Z,98162.03
2022-12-08T02:47:19.438Z,98168.25
2022-12-08T02:49:46.622Z,98160.91
2022-12-08T02:52:13.134Z,98164.78
2022-12-08T02:54:45.557Z,98158.09
2022-12-08T02:57:46.830Z,98146.78
2022-12-08T03:00:19.036Z,98147.16
2022-12-08T03:03:15.906Z,98144.50
2022-12-08T03:06:32.550Z,98141.47
2022-12-08T03:09:24.934Z,98140.63
2022-12-08T03:12:31.307Z,98145.00
2022-12-08T03:15:08.255Z,98135.47
2022-12-08T03:17:36.539Z,98130.66
2022-12-08T03:20:09.572Z,98126.16
2022-12-08T03:22:37.841Z,98121.66
2022-12-08T03:25:05.446Z,98116.13
2022-12-08T03:27:32.514Z,98117.22
2022-12-08T03:30:00.343Z,98107.44
2022-12-08T03:32:36.539Z,98114.84
2022-12-08T03:35:11.666Z,98119.25
2022-12-08T03:37:40.346Z,98106.97
2022-12-08T03:40:11.481Z,98102.41
2022-12-08T03:42:38.111Z,98106.78
2022-12-08T03:45:05.799Z,98097.09
2022-12-08T03:47:32.564Z,98097.97
2022-12-08T03:49:59.160Z,98096.13
2022-12-08T03:52:25.727Z,98095.34
2022-12-08T03:54:52.307Z,98093.53
2022-12-08T03:57:18.908Z,98080.41
2022-12-08T03:59:45.471Z,98078.94
2022-12-08T04:02:12.151Z,98079.25
2022-12-08T04:04:38.800Z,98077.91
2022-12-08T04:07:05.374Z,98080.81
2022-12-08T04:09:31.947Z,98083.00
2022-12-08T04:11:58.547Z,98081.13
2022-12-08T04:14:25.312Z,98072.53
2022-12-08T04:16:51.880Z,98074.44
2022-12-08T04:19:18.450Z,98073.22
2022-12-08T04:21:46.876Z,98067.13
2022-12-08T04:24:13.462Z,98070.69
2022-12-08T04:26:40.147Z,98070.69
2022-12-08T04:29:06.710Z,98066.56
2022-12-08T04:31:33.439Z,98068.50
2022-12-08T04:34:00.222Z,98056.91
2022-12-08T04:36:26.800Z,98055.91
2022-12-08T04:38:53.864Z,98048.25
2022-12-08T04:41:20.438Z,98054.97
2022-12-08T04:43:46.995Z,98046.34
2022-12-08T04:46:13.705Z,98053.50
2022-12-08T04:48:41.301Z,98057.09
2022-12-08T04:51:17.026Z,98046.25
2022-12-08T04:53:46.706Z,98049.28
2022-12-08T04:56:19.095Z,98048.53
2022-12-08T04:58:46.279Z,98050.31
2022-12-08T05:01:13.452Z,98049.94
2022-12-08T05:03:42.919Z,98048.75
2022-12-08T05:06:14.427Z,98045.47
2022-12-08T05:08:42.503Z,98042.31
2022-12-08T05:11:11.607Z,98036.13
2022-12-08T05:13:38.316Z,98041.38
2022-12-08T05:16:23.222Z,98037.63
2022-12-08T05:18:49.909Z,98044.31
2022-12-08T05:21:16.588Z,98040.34
2022-12-08T05:23:43.321Z,98041.72
2022-12-08T05:26:09.965Z,98049.56
2022-12-08T05:28:41.772Z,98047.72
2022-12-08T05:31:10.687Z,98041.53
2022-12-08T05:33:37.351Z,98040.69
2022-12-08T05:36:04.276Z,98031.47
2022-12-08T05:38:30.928Z,98030.50
2022-12-08T05:40:57.665Z,98029.81
2022-12-08T05:43:24.593Z,98035.81
2022-12-08T05:45:51.305Z,98040.00
2022-12-08T05:48:17.960Z,98030.78
2022-12-08T05:50:48.825Z,98030.28
2022-12-08T05:53:17.388Z,98023.72
2022-12-08T05:55:44.368Z,98028.78
2022-12-08T05:58:16.263Z,98028.38
2022-12-08T06:00:43.262Z,98020.41
2022-12-08T06:03:12.249Z,98014.53
2022-12-08T06:05:40.549Z,98018.28
2022-12-08T06:08:10.184Z,98014.56
2022-12-08T06:10:39.469Z,98018.53
2022-12-08T06:13:06.269Z,98018.25
2022-12-08T06:15:38.109Z,98012.03
2022-12-08T06:18:05.925Z,98004.88
2022-12-08T06:20:32.869Z,98011.34
2022-12-08T06:22:59.937Z,98014.63
2022-12-08T06:25:26.534Z,98012.56
2022-12-08T06:27:53.241Z,98003.84
2022-12-08T06:30:19.942Z,98003.22
2022-12-08T06:32:46.524Z,98005.88
2022-12-08T06:35:13.113Z,98007.91
2022-12-08T06:37:39.825Z,98007.91
2022-12-08T06:40:07.671Z,98001.56
2022-12-08T06:42:49.485Z,98004.22
2022-12-08T06:45:17.860Z,98008.31
2022-12-08T06:47:45.071Z,98009.47
2022-12-08T06:50:12.868Z,98008.13
2022-12-08T06:52:49.306Z,98015.56
2022-12-08T06:55:50.669Z,98009.88
2022-12-08T06:58:10.390Z,98006.44
2022-12-08T07:00:37.031Z,98008.50
2022-12-08T07:03:06.947Z,98012.25
2022-12-08T07:05:33.871Z,98013.41
2022-12-08T07:08:00.780Z,98007.63
2022-12-08T07:10:27.628Z,98013.00
2022-12-08T07:12:54.181Z,98005.00
2022-12-08T07:15:21.068Z,98014.38
2022-12-08T07:17:48.455Z,98006.66
2022-12-08T07:20:15.726Z,98013.22
2022-12-08T07:22:48.462Z,98008.38
2022-12-08T07:25:17.445Z,98020.38
2022-12-08T07:27:45.043Z,98020.16
2022-12-08T07:30:12.951Z,98014.81
2022-12-08T07:32:39.760Z,98016.66
2022-12-08T07:35:08.210Z,98008.03
2022-12-08T07:37:36.249Z,98008.81
2022-12-08T07:40:13.602Z,98012.50
2022-12-08T07:42:40.217Z,98004.47
2022-12-08T07:45:07.724Z,98009.34
2022-12-08T07:47:34.325Z,98013.13
2022-12-08T07:50:00.889Z,98013.66
2022-12-08T07:52:27.582Z,98016.81
2022-12-08T07:54:54.142Z,98013.31
2022-12-08T07:57:20.738Z,98015.91
2022-12-08T07:59:47.322Z,98015.22
2022-12-08T08:02:25.001Z,98012.56
2022-12-08T08:04:53.011Z,98002.84
2022-12-08T08:07:19.798Z,98010.50
2022-12-08T08:09:46.486Z,98012.97
2022-12-08T08:15:01.313Z,98015.72
2022-12-08T08:17:29.924Z,98011.63
2022-12-08T08:19:56.894Z,98017.63
2022-12-08T08:22:25.496Z,98014.84
2022-12-08T08:24:52.562Z,98016.31
2022-12-08T08:27:20.489Z,98016.72
2022-12-08T08:29:49.693Z,98013.00
2022-12-08T08:32:16.742Z,98010.13
2022-12-08T08:34:43.369Z,98007.75
2022-12-08T08:37:10.068Z,98006.63
2022-12-08T08:39:36.846Z,98011.47
2022-12-08T08:42:03.608Z,98009.44
2022-12-08T08:44:30.281Z,98009.44
2022-12-08T08:46:56.905Z,98016.34
2022-12-08T08:49:23.527Z,98016.16
2022-12-08T08:51:51.027Z,98017.09
2022-12-08T08:54:17.653Z,98020.13
2022-12-08T08:56:44.264Z,98016.91
2022-12-08T08:59:11.199Z,98018.97
2022-12-08T09:01:37.867Z,98017.47
2022-12-08T09:04:04.614Z,98014.50
2022-12-08T09:06:31.413Z,98018.97
2022-12-08T09:08:58.041Z,98019.91
2022-12-08T09:11:25.681Z,98004.19
2022-12-08T09:13:54.255Z,98004.00
2022-12-08T09:16:22.111Z,98002.13
2022-12-08T09:18:49.429Z,98006.22
2022-12-08T09:21:22.302Z,98009.78
2022-12-08T09:23:51.174Z,98011.47
2022-12-08T09:26:22.137Z,98006.63
2022-12-08T09:28:53.294Z,98016.75
2022-12-08T09:31:21.264Z,98010.19
2022-12-08T09:33:53.895Z,98013.34
2022-12-08T09:36:21.244Z,98018.78
2022-12-08T09:38:48.980Z,98021.59
2022-12-08T09:41:24.318Z,98013.69
2022-12-08T09:44:24.548Z,98005.50
2022-12-08T09:46:53.120Z,98008.47
2022-12-08T09:49:31.095Z,98007.72
2022-12-08T09:51:58.121Z,97997.81
2022-12-08T09:54:34.467Z,98006.19
2022-12-08T09:57:07.638Z,98001.34
2022-12-08T09:59:35.366Z,98002.28
2022-12-08T10:02:06.683Z,97998.69
2022-12-08T10:04:38.193Z,98002.88
2022-12-08T10:07:30.707Z,97994.19
2022-12-08T10:10:25.217Z,97995.34
2022-12-08T10:13:03.602Z,97984.59
2022-12-08T10:15:53.098Z,97991.19
2022-12-08T10:18:27.804Z,97990.03
2022-12-08T10:21:11.944Z,97990.00
2022-12-08T10:23:41.075Z,97980.63
2022-12-08T10:26:19.956Z,97989.56
2022-12-08T10:28:46.681Z,97976.41
2022-12-08T10:31:23.135Z,97967.88
2022-12-08T10:33:59.902Z,97970.16
2022-12-08T10:36:56.056Z,97962.66
2022-12-08T10:39:46.727Z,97963.50
2022-12-08T10:42:22.068Z,97968.28
2022-12-08T10:45:08.361Z,97973.78
2022-12-08T10:47:45.351Z,97970.88
2022-12-08T10:50:35.797Z,97967.00
2022-12-08T10:53:12.697Z,97958.22
2022-12-08T10:55:50.853Z,97959.88
2022-12-08T10:59:04.779Z,97963.94
2022-12-08T11:01:38.542Z,97954.41
2022-12-08T11:04:25.761Z,97957.00
2022-12-08T11:06:53.240Z,97954.00
2022-12-08T11:09:19.781Z,97948.31
2022-12-08T11:12:19.745Z,97952.81
2022-12-08T11:14:51.342Z,97949.81
2022-12-08T11:17:27.289Z,97952.63
2022-12-08T11:20:02.049Z,97955.97
2022-12-08T11:22:52.907Z,97955.88
2022-12-08T11:25:25.719Z,97952.69
2022-12-08T11:27:57.260Z,97944.28
2022-12-08T11:30:43.542Z,97944.19
2022-12-08T11:33:26.833Z,97937.66
2022-12-08T11:36:14.736Z,97936.03
2022-12-08T11:38:51.993Z,97939.50
2022-12-08T11:41:28.832Z,97939.94
2022-12-08T11:44:29.296Z,97935.69
2022-12-08T11:47:02.534Z,97933.84
2022-12-08T11:49:41.891Z,97926.00
2022-12-08T11:52:26.123Z,97933.78
2022-12-08T11:54:56.077Z,97930.56
2022-12-08T11:57:24.425Z,97925.59
2022-12-08T11:59:54.709Z,97925.03
2022-12-08T12:02:28.912Z,97920.72
2022-12-08T12:05:08.498Z,97917.41
2022-12-08T12:07:58.517Z,97921.16
2022-12-08T12:10:57.038Z,97919.56
2022-12-08T12:13:41.800Z,97912.97
2022-12-08T12:16:23.042Z,97919.91
2022-12-08T12:18:55.347Z,97915.47
2022-12-08T12:21:39.090Z,97908.72
2022-12-08T12:24:08.716Z,97904.16
2022-12-08T12:26:39.373Z,97906.22
2022-12-08T12:29:13.148Z,97898.84
2022-12-08T12:31:45.033Z,97896.56
2022-12-08T12:34:25.333Z,97901.94
2022-12-08T12:37:17.091Z,97901.59
2022-12-08T12:39:52.678Z,97897.59
2022-12-08T12:42:56.658Z,97892.91
2022-12-08T12:45:31.417Z,97886.78
2022-12-08T12:47:59.152Z,97887.41
2022-12-08T12:50:44.878Z,97888.81
2022-12-08T12:53:17.823Z,97880.81
2022-12-08T12:55:55.562Z,97880.75
2022-12-08T12:58:42.602Z,97882.53
2022-12-08T13:01:14.860Z,97876.78
2022-12-08T13:03:45.727Z,97877.75
2022-12-08T13:06:23.562Z,97877.56
2022-12-08T13:08:53.299Z,97878.69
2022-12-08T13:11:21.900Z,97879.16
2022-12-08T13:14:04.080Z,97876.44
2022-12-08T13:16:37.693Z,97875.41
2022-12-08T13:19:13.811Z,97876.84
2022-12-08T13:21:40.974Z,97879.38
2022-12-08T13:24:10.313Z,97877.09
2022-12-08T13:27:06.805Z,97873.06
2022-12-08T13:29:35.202Z,97881.81
2022-12-08T13:32:09.546Z,97880.47
2022-12-08T13:34:41.923Z,97876.50
2022-12-08T13:37:11.525Z,97872.19
2022-12-08T13:40:12.381Z,97875.63
2022-12-08T13:42:47.807Z,97869.50
2022-12-08T13:45:43.543Z,97871.56
2022-12-08T13:50:23.377Z,97870.00
2022-12-08T13:56:05.386Z,97873.28
2022-12-08T13:57:33.793Z,97880.78
2022-12-08T14:00:22.490Z,97880.88
2022-12-08T14:02:57.500Z,97873.22
2022-12-08T14:05:48.034Z,97874.84
2022-12-08T14:08:59.379Z,97880.97
2022-12-08T14:11:34.434Z,97877.41
2022-12-08T14:14:53.847Z,97880.22
2022-12-08T14:17:20.248Z,97879.88
2022-12-08T14:20:06.478Z,97873.97
2022-12-08T14:22:36.289Z,97875.25
2022-12-08T14:25:04.987Z,97877.88
2022-12-08T14:27:37.089Z,97874.16
2022-12-08T14:30:25.202Z,97879.72
2022-12-08T14:32:58.823Z,97876.75
2022-12-08T14:35:29.581Z,97876.94
2022-12-08T14:38:00.482Z,97877.47
2022-12-08T14:40:42.656Z,97874.50
2022-12-08T14:43:09.209Z,97877.09
2022-12-08T14:45:44.350Z,97878.66
2022-12-08T14:48:36.246Z,97881.44
2022-12-08T14:51:21.224Z,97882.75
2022-12-08T14:54:15.303Z,97887.63
2022-12-08T14:56:54.899Z,97885.00
2022-12-08T14:59:33.431Z,97891.31
2022-12-08T15:02:25.088Z,97892.47
2022-12-08T15:05:04.027Z,97879.94
2022-12-08T15:07:49.331Z,97885.72
2022-12-08T15:10:26.526Z,97889.47
2022-12-08T15:13:11.355Z,97891.72
2022-12-08T15:15:54.092Z,97893.44
2022-12-08T15:18:40.292Z,97893.97
2022-12-08T15:21:10.044Z,97887.25
2022-12-08T15:23:46.373Z,97901.09
2022-12-08T15:26:23.855Z,97896.59
2022-12-08T15:28:50.753Z,97901.47
2022-12-08T15:31:18.290Z,97889.69
2022-12-08T15:33:45.117Z,97892.09
2022-12-08T15:36:12.148Z,97887.78
2022-12-08T15:38:40.836Z,97885.56
2022-12-08T15:41:13.033Z,97893.59
2022-12-08T15:43:41.405Z,97889.13
2022-12-08T15:46:08.046Z,97889.88
2022-12-08T15:48:37.169Z,97892.47
2022-12-08T15:51:03.901Z,97889.13
2022-12-08T15:53:30.460Z,97886.53
2022-12-08T15:56:27.097Z,97885.41
2022-12-08T15:58:53.426Z,97879.00
2022-12-08T16:01:21.819Z,97881.63
2022-12-08T16:09:33.151Z,97885.56
2022-12-08T16:12:18.391Z,97875.63
2022-12-08T16:17:32.528Z,97873.59
2022-12-08T16:19:59.738Z,97876.38
2022-12-08T16:22:56.399Z,97873.94
2022-12-08T16:25:19.859Z,97873.00
2022-12-08T16:28:01.247Z,97872.84
2022-12-08T16:30:33.301Z,97878.47
2022-12-08T16:32:59.921Z,97877.31
2022-12-08T16:35:28.650Z,97882.56
2022-12-08T16:37:55.299Z,97883.84
2022-12-08T16:40:22.408Z,97882.00
2022-12-08T16:42:50.034Z,97886.84
2022-12-08T16:45:23.802Z,97880.47
2022-12-08T16:47:54.011Z,97884.78
2022-12-08T16:50:27.843Z,97886.66
2022-12-08T16:53:06.801Z,97879.53
2022-12-08T16:55:34.662Z,97877.13
2022-12-08T16:58:02.615Z,97879.75
2022-12-08T17:00:31.239Z,97878.44
2022-12-08T17:02:58.776Z,97880.88
2022-12-08T17:05:26.833Z,97876.78
2022-12-08T17:07:54.549Z,97870.97
2022-12-08T17:10:25.759Z,97875.41
2022-12-08T17:12:53.512Z,97872.63
2022-12-08T17:15:24.402Z,97870.78
2022-12-08T17:17:52.044Z,97859.56
2022-12-08T17:20:25.850Z,97861.06
2022-12-08T17:22:58.774Z,97864.22
2022-12-08T17:25:26.617Z,97872.78
2022-12-08T17:27:53.395Z,97865.34
2022-12-08T17:30:20.165Z,97868.91
2022-12-08T17:32:52.566Z,97863.47
2022-12-08T17:35:19.650Z,97860.31
2022-12-08T17:37:46.342Z,97858.06
2022-12-08T17:40:13.227Z,97861.41
2022-12-08T17:42:39.888Z,97861.78
2022-12-08T17:45:08.406Z,97855.06
2022-12-08T17:47:35.222Z,97864.94
2022-12-08T17:50:02.467Z,97863.88
2022-12-08T17:52:29.283Z,97864.75
2022-12-08T17:54:55.983Z,97863.81
2022-12-08T17:57:23.590Z,97862.66
2022-12-08T17:59:50.199Z,97865.41
2022-12-08T18:02:18.102Z,97865.44
2022-12-08T18:04:44.736Z,97862.47
2022-12-08T18:07:11.356Z,97856.13
2022-12-08T18:09:44.298Z,97850.69
2022-12-08T18:12:10.921Z,97852.78
2022-12-08T18:14:37.573Z,97849.44
2022-12-08T18:17:04.300Z,97854.31
2022-12-08T18:19:31.034Z,97847.16
2022-12-08T18:21:57.686Z,97848.28
2022-12-08T18:24:25.439Z,97858.03
2022-12-08T18:26:52.521Z,97860.09
2022-12-08T18:29:21.222Z,97861.00
2022-12-08T18:31:48.298Z,97868.50
2022-12-08T18:34:15.009Z,97860.81
2022-12-08T18:36:41.957Z,97863.22
2022-12-08T18:39:34.938Z,97866.41
2022-12-08T18:42:22.116Z,97859.50
2022-12-08T18:45:04.120Z,97861.75
2022-12-08T18:47:37.134Z,97865.84
2022-12-08T18:50:10.933Z,97862.13
2022-12-08T18:52:37.537Z,97864.34
2022-12-08T18:55:06.957Z,97860.94
2022-12-08T18:57:42.833Z,97859.50
2022-12-08T19:00:16.690Z,97855.75
2022-12-08T19:02:43.799Z,97860.81
2022-12-08T19:05:13.189Z,97855.41
2022-12-08T19:07:39.956Z,97864.72
2022-12-08T19:10:08.055Z,97868.66
2022-12-08T19:12:35.006Z,97867.69
2022-12-08T19:15:01.673Z,97863.72
2022-12-08T19:17:29.577Z,97863.19
2022-12-08T19:19:56.257Z,97868.22
2022-12-08T19:22:26.649Z,97862.97
2022-12-08T19:24:53.274Z,97866.53
2022-12-08T19:27:19.952Z,97872.47
2022-12-08T19:29:46.678Z,97872.34
2022-12-08T19:32:13.584Z,97870.31
2022-12-08T19:34:40.274Z,97866.88
2022-12-08T19:37:08.762Z,97871.78
2022-12-08T19:39:54.132Z,97874.06
2022-12-08T19:42:49.280Z,97870.22
2022-12-08T19:45:21.592Z,97868.72
2022-12-08T19:47:48.926Z,97871.28
2022-12-08T19:50:35.462Z,97869.50
2022-12-08T19:53:12.182Z,97867.56
2022-12-08T19:55:41.086Z,97867.91
2022-12-08T19:58:09.081Z,97875.03
2022-12-08T20:00:38.241Z,97863.81
2022-12-08T20:03:05.349Z,97870.66
2022-12-08T20:05:34.490Z,97871.38
2022-12-08T20:08:01.249Z,97870.63
2022-12-08T20:10:37.515Z,97868.72
2022-12-08T20:13:24.198Z,97866.47
2022-12-08T20:15:51.450Z,97870.81
2022-12-08T20:18:18.581Z,97870.97
2022-12-08T20:20:46.371Z,97863.22
2022-12-08T20:23:14.561Z,97868.84
2022-12-08T20:25:44.550Z,97858.94
2022-12-08T20:28:14.152Z,97862.91
2022-12-08T20:30:44.820Z,97860.34
2022-12-08T20:33:13.679Z,97864.53
2022-12-08T20:35:40.549Z,97863.31
2022-12-08T20:38:07.468Z,97865.13
2022-12-08T20:40:34.282Z,97862.84
2022-12-08T20:43:02.906Z,97853.38
2022-12-08T20:45:29.526Z,97858.63
2022-12-08T20:47:56.233Z,97853.69
2022-12-08T20:50:23.067Z,97857.97
2022-12-08T20:52:49.854Z,97863.31
2022-12-08T20:55:17.684Z,97861.53
2022-12-08T20:57:44.413Z,97871.41
2022-12-08T21:00:12.045Z,97865.53
2022-12-08T21:02:43.401Z,97875.91
2022-12-08T21:05:14.725Z,97875.72
2022-12-08T21:07:41.701Z,97869.94
2022-12-08T21:10:09.790Z,97863.25
2022-12-08T21:12:36.901Z,97860.72
2022-12-08T21:15:04.307Z,97863.66
2022-12-08T21:17:31.162Z,97865.22
2022-12-08T21:19:58.009Z,97867.41
2022-12-08T21:22:24.791Z,97871.56
2022-12-08T21:24:51.589Z,97872.06
2022-12-08T21:27:18.425Z,97868.50
2022-12-08T21:29:45.257Z,97874.09
2022-12-08T21:32:12.113Z,97874.94
2022-12-08T21:34:38.875Z,97872.25
2022-12-08T21:37:05.580Z,97868.91
2022-12-08T21:39:32.403Z,97877.47
2022-12-08T21:42:19.527Z,97875.00
2022-12-08T21:44:49.287Z,97878.00
2022-12-08T21:47:18.706Z,97867.50
2022-12-08T21:49:45.602Z,97869.72
2022-12-08T21:52:12.717Z,97863.06
2022-12-08T21:54:39.319Z,97859.84
2022-12-08T21:57:05.988Z,97862.06
2022-12-08T21:59:32.801Z,97864.53
2022-12-08T22:02:02.146Z,97858.78
2022-12-08T22:04:29.055Z,97866.72
2022-12-08T22:06:56.054Z,97866.63
2022-12-08T22:09:22.792Z,97865.22
2022-12-08T22:11:49.549Z,97865.13
2022-12-08T22:14:21.161Z,97870.22
2022-12-08T22:16:47.943Z,97880.66
2022-12-08T22:19:14.660Z,97876.41
2022-12-08T22:21:42.045Z,97873.31
2022-12-08T22:24:09.384Z,97871.53
2022-12-08T22:26:37.089Z,97873.72
2022-12-08T22:29:03.723Z,97875.53
2022-12-08T22:31:30.536Z,97871.66
2022-12-08T22:33:59.329Z,97876.06
2022-12-08T22:36:28.472Z,97869.53
2022-12-08T22:38:55.819Z,97869.25
2022-12-08T22:41:23.309Z,97871.47
2022-12-08T22:43:50.449Z,97875.22
2022-12-08T22:46:26.546Z,97875.72
2022-12-08T22:48:54.555Z,97874.53
2022-12-08T22:51:21.439Z,97863.16
2022-12-08T22:53:48.292Z,97865.97
2022-12-08T22:56:16.633Z,97860.63
2022-12-08T22:58:44.447Z,97864.44
2022-12-08T23:01:26.735Z,97866.72
2022-12-08T23:03:53.628Z,97863.47
2022-12-08T23:06:20.628Z,97853.56
2022-12-08T23:08:48.214Z,97853.25
2022-12-08T23:11:15.127Z,97861.13
2022-12-08T23:13:41.863Z,97858.81
2022-12-08T23:16:09.910Z,97853.03
2022-12-08T23:18:39.785Z,97854.00
2022-12-08T23:21:11.287Z,97851.66
2022-12-08T23:23:38.180Z,97841.34
2022-12-08T23:26:22.687Z,97845.25
2022-12-08T23:28:49.764Z,97843.31
2022-12-08T23:31:17.513Z,97847.97
2022-12-08T23:33:44.838Z,97841.34
2022-12-08T23:36:13.773Z,97849.34
2022-12-08T23:38:40.359Z,97842.66
2022-12-08T23:41:09.258Z,97849.94
2022-12-08T23:43:36.223Z,97840.00
2022-12-08T23:46:04.062Z,97834.25
2022-12-08T23:48:34.290Z,97836.66
2022-12-08T23:51:01.374Z,97833.66
2022-12-08T23:53:30.456Z,97837.66
2022-12-08T23:56:07.265Z,97829.22
2022-12-08T23:58:37.090Z,97825.59
